International Virtual Aviation Organisation

Russian Federation and Kazakhstan MCD

 

Карточка аэропорта UWGG

Внимание!
Информация на этой странице в стадии наполнения.
Если вы не увидели какой-то информации, или заметили неточность - пожалуйста сообщите нам!
Спасибо!
Команда RU-STAFF
Название аэропортаСтригино
Название аэропорта (англ.)Strigino
Превышение256 ft. (78 m.)
Координаты56°13.8', 43°47.202'
Высота перехода900
Эшелон переходаBy ATC
Коды ответчика2120-2147
Зона ОрВДМосква РПИ (UUWV)
Данные METARUWGG 180730Z 22007MPS 9999 DRSN OVC015 M00/M03 Q0999 R18L/490532 TEMPO 22006G14MPS
Проноз погоды (TAF)UWGG 180447Z 1806/1906 22005G14MPS 9999 -SN BKN016 TXM00/1811Z TNM07/1904Z TEMPO 1809/1815 2000 SHSN BKN007CB
NOTAMshow/hide NOTAM
AWOS   TABLE

Информация о ВПП

ВПП Длина ВПП (м.) Покрытие Курс ВПП Частота ILS
18R2805Асфальтобетон179109.9
36L2805Асфальтобетон359109.5

Диспетчерские позиции

Позывной Наименование органа УВД Частота
UWGG_GNDНижний - Руление121.800
UWGG_TWRНижний - Вышка120.400
UWGG_R_APPНижний - Круг120.800
UWGG_APPНижний - Подход124.700



Спутниковое изображение